Terminal Aerodrome Forecast
Issued by NWS

Home | Current Version | Previous Version | Text Only | Print | Product List | Glossary On
Versions: 1 2 3 4 5 6 7 8 9 10 11 12 13 14
394
FTUS45 KREV 261721
TAFMMH
TAF
KMMH 261721Z 2618/2718 34011KT P6SM FEW100 SCT180
     FM270200 31007KT P6SM FEW180
     FM271700 35011KT P6SM FEW180=

USA.gov is the U.S. government's official web portal to all federal, state and local government web resources and services.